Home > Products > Valid Products > TAF

000
FTUS42 KMLB 042110 AAA
TAFVRB
TAF AMD
KVRB 042110Z 0421/0518 26006KT P6SM VCSH SCT040 BKN100
      TEMPO 0423/0502 4SM SHRA BKN020 OVC040
     FM050500 26012KT P6SM BKN030 OVC120
     FM051000 30012KT P6SM SCT040=



000
FTUS42 KMLB 042058 AAA
TAFMCO
TAF AMD
KMCO 042058Z 0421/0518 16012KT P6SM -RA SCT025 BKN100
      TEMPO 0421/0423 4SM TSRA BKN025CB OVC050
     FM050200 28010KT P6SM VCSH BKN030 OVC120
     FM050600 29012KT P6SM SCT040=



000
FTUS42 KMLB 041747
TAFMCO
TAF
KMCO 041747Z 0418/0518 17009KT P6SM -RA SCT015 BKN050 OVC110
     FM050200 28010KT P6SM VCSH BKN030 OVC120
     FM050600 29012KT P6SM SCT040=



000
FTUS42 KMLB 041747
TAFSFB
TAF
KSFB 041747Z 0418/0518 22011KT P6SM -RA SCT015 BKN050 OVC100
     FM050200 26010KT P6SM BKN030 OVC120
     FM050600 27012KT P6SM SCT040=



000
FTUS42 KMLB 041747
TAFVRB
TAF
KVRB 041747Z 0418/0518 26007KT P6SM -RA SCT050 BKN080 OVC120
      TEMPO 0418/0422 5SM TSRA BKN030CB OVC050
     FM050500 26012KT P6SM BKN030 OVC120
     FM051000 30012KT P6SM SCT040=



000
FTUS42 KMLB 041747
TAFDAB
TAF
KDAB 041747Z 0418/0518 10003KT P6SM -RA SCT023 BKN035 BKN070
     FM050400 27010KT P6SM BKN030 OVC120
     FM050800 25012KT P6SM SCT040=



000
FTUS42 KMLB 041747
TAFMLB
TAF
KMLB 041747Z 0418/0518 26008KT P6SM -RA SCT050 BKN080 OVC120
     FM050500 23009KT P6SM BKN030 OVC120
     FM051000 30012KT P6SM SCT040=



000
FTUS42 KMLB 041747
TAFSFB
TAF
KSFB 041747Z 0418/0518 22011KT P6SM -RA SCT015 BKN050 OVC100
     FM050200 26010KT P6SM BKN030 OVC120
     FM050600 27012KT P6SM SCT040=



000
FTUS42 KMLB 041747
TAFMCO
TAF
KMCO 041747Z 0418/0518 17009KT P6SM -RA SCT015 BKN050 OVC110
     FM050200 28010KT P6SM VCSH BKN030 OVC120
     FM050600 29012KT P6SM SCT040=



000
FTUS42 KMLB 041747
TAFMLB
TAF
KMLB 041747Z 0418/0518 26008KT P6SM -RA SCT050 BKN080 OVC120
     FM050500 23009KT P6SM BKN030 OVC120
     FM051000 30012KT P6SM SCT040=



000
FTUS42 KMLB 041747
TAFVRB
TAF
KVRB 041747Z 0418/0518 26007KT P6SM -RA SCT050 BKN080 OVC120
      TEMPO 0418/0422 5SM TSRA BKN030CB OVC050
     FM050500 26012KT P6SM BKN030 OVC120
     FM051000 30012KT P6SM SCT040=



000
FTUS42 KMLB 041747
TAFDAB
TAF
KDAB 041747Z 0418/0518 10003KT P6SM -RA SCT023 BKN035 BKN070
     FM050400 27010KT P6SM BKN030 OVC120
     FM050800 25012KT P6SM SCT040=



000
FTUS42 KMLB 041742
TAFMLB
TAF
KMLB 041742Z 0418/0518 26008KT P6SM -RA SCT050 BKN080 OVC120
     FM050500 23009KT P6SM BKN030 OVC120
     FM051000 30012KT P6SM SCT040=



000
FTUS42 KMLB 041742
TAFMCO
TAF
KMCO 041742Z 0418/0518 17009KT P6SM -RA SCT015 BKN050 OVC110
     FM050200 28010KT P6SM VCSH BKN030 OVC120
     FM050600 29012KT P6SM SCT040=



000
FTUS42 KMLB 041742
TAFSFB
TAF
KSFB 041742Z 0418/0518 22011KT P6SM -RA SCT015 BKN050 OVC100
     FM050200 26010KT P6SM BKN030 OVC120
     FM050600 27012KT P6SM SCT040=



000
FTUS42 KMLB 041742
TAFDAB
TAF
KDAB 041742Z 0418/0518 10003KT P6SM -RA SCT023 BKN035 BKN070
     FM050400 27010KT P6SM BKN030 OVC120
     FM050800 25012KT P6SM SCT040=



000
FTUS42 KMLB 041742
TAFVRB
TAF
KVRB 041742Z 0418/0518 26007KT P6SM -RA SCT050 BKN080 OVC120
      TEMPO 0418/0422 5SM TSRA BKN030CB OVC050
     FM050500 26012KT P6SM BKN030 OVC120
     FM051000 30012KT P6SM SCT040=



000
FTUS42 KMLB 041526 AAB
TAFDAB
TAF AMD
KDAB 041526Z 0415/0512 21009KT P6SM VCTS SCT025CB SCT080 BKN100
      TEMPO 0415/0416 VRB18G29KT 2SM TSRA FEW008 BKN025CB OVC060
     FM041800 27008KT P6SM VCSH BKN025 BKN040=



000
FTUS42 KMLB 041526 AAB
TAFDAB
TAF AMD
KDAB 041526Z 0415/0512 21009KT P6SM VCTS SCT025CB SCT080 BKN100
      TEMPO 0415/0416 VRB18G29KT 2SM TSRA FEW008 BKN025CB OVC060
     FM041800 27008KT P6SM VCSH BKN025 BKN040=



000
FTUS42 KMLB 041427 AAB
TAFMCO
TAF AMD
KMCO 041427Z 0414/0512 20010KT P6SM FEW060 BKN080 OVC150
     FM041600 23008G16KT P6SM VCTS BKN025CB OVC100
     FM042000 27008KT P6SM VCSH BKN025 BKN040=



000
FTUS42 KMLB 041329 AAD
TAFVRB
TAF AMD
KVRB 041329Z 0413/0512 30007KT 3SM -RA BR VCSH SCT007 BKN110
      TEMPO 0413/0414 VRB15G29KT 2SM TSRA BKN020CB OVC050
     FM041500 23008G16KT P6SM VCTS OVC019CB
      TEMPO 0415/0419 3SM TSRA OVC019CB
     FM042100 27011KT P6SM VCSH BKN025 BKN040=



000
FTUS42 KMLB 041329 AAD
TAFVRB
TAF AMD
KVRB 041329Z 0413/0512 30007KT 3SM -RA BR VCSH SCT007 BKN110
      TEMPO 0413/0414 VRB15G29KT 2SM TSRA BKN020CB OVC050
     FM041500 23008G16KT P6SM VCTS OVC019CB
      TEMPO 0415/0419 3SM TSRA OVC019CB
     FM042100 27011KT P6SM VCSH BKN025 BKN040=



000
FTUS42 KMLB 041328 AAB
TAFMLB
TAF AMD
KMLB 041328Z 0413/0512 22007KT P6SM VCSH SCT030 OVC100
      TEMPO 0413/0414 VRB20G28KT 2SM TSRA SCT015 BKN030CB OVC060
     FM041400 23011G17KT P6SM VCTS OVC019CB
      TEMPO 0414/0418 3SM TSRA OVC019CB
     FM042000 27011KT P6SM VCSH BKN025 BKN040=



000
FTUS42 KMLB 041328 AAB
TAFMLB
TAF AMD
KMLB 041328Z 0413/0512 22007KT P6SM VCSH SCT030 OVC100
      TEMPO 0413/0414 VRB20G28KT 2SM TSRA SCT015 BKN030CB OVC060
     FM041400 23011G17KT P6SM VCTS OVC019CB
      TEMPO 0414/0418 3SM TSRA OVC019CB
     FM042000 27011KT P6SM VCSH BKN025 BKN040=



000
FTUS42 KMLB 041307 AAB
TAFMLB
TAF AMD
KMLB 041307Z 0413/0512 22007KT P6SM VCSH SCT030 OVC100
      TEMPO 0413/0414 3SM TSRA BKN030CB OVC060
     FM041400 23011G17KT P6SM VCTS OVC019CB
      TEMPO 0414/0418 3SM TSRA OVC019CB
     FM042000 27011KT P6SM VCSH BKN025 BKN040=



000
FTUS42 KMLB 041307 AAB
TAFMLB
TAF AMD
KMLB 041307Z 0413/0512 22007KT P6SM VCSH SCT030 OVC100
      TEMPO 0413/0414 3SM TSRA BKN030CB OVC060
     FM041400 23011G17KT P6SM VCTS OVC019CB
      TEMPO 0414/0418 3SM TSRA OVC019CB
     FM042000 27011KT P6SM VCSH BKN025 BKN040=



000
FTUS42 KMLB 041301 AAA
TAFSFB
TAF AMD
KSFB 041301Z 0413/0512 22009KT P6SM VCSH SCT035 SCT070 OVC120
      TEMPO 0414/0417 5SM SHRA BKN035
     FM041800 27008KT P6SM VCSH BKN025 BKN040=



000
FTUS42 KMLB 041301 AAA
TAFSFB
TAF AMD
KSFB 041301Z 0413/0512 22009KT P6SM VCSH SCT035 SCT070 OVC120
      TEMPO 0414/0417 5SM SHRA BKN035
     FM041800 27008KT P6SM VCSH BKN025 BKN040=



000
FTUS42 KMLB 041259 AAC
TAFVRB
TAF AMD
KVRB 041259Z 0413/0512 26004KT 4SM -RA BR VCSH BKN006 BKN110
      TEMPO 0413/0414 VRB15G29KT 2SM TSRA BKN020CB OVC050
     FM041500 23008G16KT P6SM VCTS OVC019CB
      TEMPO 0415/0419 3SM TSRA OVC019CB
     FM042100 27011KT P6SM VCSH BKN025 BKN040=



000
FTUS42 KMLB 041259 AAA
TAFDAB
TAF AMD
KDAB 041259Z 0413/0512 23010KT P6SM VCTS SCT007 BKN035CB OVC080
      TEMPO 0413/0414 VRB15G28KT 2SM TSRA BKN020CB OVC050
     FM041800 27008KT P6SM VCSH BKN025 BKN040=



000
FTUS42 KMLB 041259 AAA
TAFDAB
TAF AMD
KDAB 041259Z 0413/0512 23010KT P6SM VCTS SCT007 BKN035CB OVC080
      TEMPO 0413/0414 VRB15G28KT 2SM TSRA BKN020CB OVC050
     FM041800 27008KT P6SM VCSH BKN025 BKN040=



000
FTUS42 KMLB 041259 AAC
TAFVRB
TAF AMD
KVRB 041259Z 0413/0512 26004KT 4SM -RA BR VCSH BKN006 BKN110
      TEMPO 0413/0414 VRB15G29KT 2SM TSRA BKN020CB OVC050
     FM041500 23008G16KT P6SM VCTS OVC019CB
      TEMPO 0415/0419 3SM TSRA OVC019CB
     FM042100 27011KT P6SM VCSH BKN025 BKN040=



000
FTUS42 KMLB 041245 AAA
TAFMCO
TAF AMD
KMCO 041245Z 0413/0512 15007KT P6SM VCSH FEW009 SCT050 BKN090
     FM041400 23008G16KT P6SM VCTS BKN025CB OVC100
     FM042000 27008KT P6SM VCSH BKN025 BKN040=



000
FTUS42 KMLB 041245 AAA
TAFMCO
TAF AMD
KMCO 041245Z 0413/0512 15007KT P6SM VCSH FEW009 SCT050 BKN090
     FM041400 23008G16KT P6SM VCTS BKN025CB OVC100
     FM042000 27008KT P6SM VCSH BKN025 BKN040=



000
FTUS42 KMLB 041226 AAB
TAFVRB
TAF AMD
KVRB 041226Z 0412/0512 22007KT P6SM VCTS SCT007 SCT025CB OVC100
     FM041300 22011KT P6SM VCSH SCT009 BKN020 OVC100
      TEMPO 0413/0414 VRB15G29KT 3SM TSRA BKN020CB OVC050
     FM041500 23008G16KT P6SM VCTS OVC019CB
      TEMPO 0415/0419 3SM TSRA OVC019CB
     FM042100 27011KT P6SM VCSH BKN025 BKN040=



000
FTUS42 KMLB 041226 AAB
TAFVRB
TAF AMD
KVRB 041226Z 0412/0512 22007KT P6SM VCTS SCT007 SCT025CB OVC100
     FM041300 22011KT P6SM VCSH SCT009 BKN020 OVC100
      TEMPO 0413/0414 VRB15G29KT 3SM TSRA BKN020CB OVC050
     FM041500 23008G16KT P6SM VCTS OVC019CB
      TEMPO 0415/0419 3SM TSRA OVC019CB
     FM042100 27011KT P6SM VCSH BKN025 BKN040=



000
FTUS42 KMLB 041220 AAA
TAFVRB
TAF AMD
KVRB 041220Z 0412/0512 22007KT P6SM VCTS SCT007 SCT025CB OVC100
     FM041300 22011KT P6SM VCSH SCT009 BKN020
     FM041500 23008G16KT P6SM VCTS OVC019CB
      TEMPO 0415/0419 3SM TSRA OVC019CB
     FM042100 27011KT P6SM VCSH BKN025 BKN040=



000
FTUS42 KMLB 041220 AAA
TAFVRB
TAF AMD
KVRB 041220Z 0412/0512 22007KT P6SM VCTS SCT007 SCT025CB OVC100
     FM041300 22011KT P6SM VCSH SCT009 BKN020
     FM041500 23008G16KT P6SM VCTS OVC019CB
      TEMPO 0415/0419 3SM TSRA OVC019CB
     FM042100 27011KT P6SM VCSH BKN025 BKN040=



000
FTUS42 KMLB 041219 AAA
TAFMLB
TAF AMD
KMLB 041219Z 0412/0512 22007KT P6SM VCSH SCT030 OVC100
      TEMPO 0412/0413 VRB15G29KT 3SM TSRA BKN025CB OVC060
     FM041400 23011G17KT P6SM VCTS OVC019CB
      TEMPO 0414/0418 3SM TSRA OVC019CB
     FM042000 27011KT P6SM VCSH BKN025 BKN040=



000
FTUS42 KMLB 041219 AAA
TAFMLB
TAF AMD
KMLB 041219Z 0412/0512 22007KT P6SM VCSH SCT030 OVC100
      TEMPO 0412/0413 VRB15G29KT 3SM TSRA BKN025CB OVC060
     FM041400 23011G17KT P6SM VCTS OVC019CB
      TEMPO 0414/0418 3SM TSRA OVC019CB
     FM042000 27011KT P6SM VCSH BKN025 BKN040=



000
FTUS42 KMLB 041133
TAFMCO
TAF
KMCO 041133Z 0412/0512 21009KT P6SM TS VCTS FEW009 SCT045CB BKN100
      TEMPO 0412/0414 3SM TSRA BKN035CB BKN080
     FM041400 23008G16KT P6SM VCTS OVC020CB
      TEMPO 0414/0418 3SM TSRA OVC019CB
     FM042000 27008KT P6SM VCSH BKN025 BKN040=



000
FTUS42 KMLB 041133
TAFMCO
TAF
KMCO 041133Z 0412/0512 21009KT P6SM TS VCTS FEW009 SCT045CB BKN100
      TEMPO 0412/0414 3SM TSRA BKN035CB BKN080
     FM041400 23008G16KT P6SM VCTS OVC020CB
      TEMPO 0414/0418 3SM TSRA OVC019CB
     FM042000 27008KT P6SM VCSH BKN025 BKN040=



000
FTUS42 KMLB 041133
TAFSFB
TAF
KSFB 041133Z 0412/0512 27006KT P6SM -RA VCSH BKN009 OVC110
     FM041300 23008G16KT P6SM VCTS OVC019CB
      TEMPO 0414/0417 3SM TSRA OVC019CB
     FM041800 27008KT P6SM VCSH BKN025 BKN040=



000
FTUS42 KMLB 041133
TAFMLB
TAF
KMLB 041133Z 0412/0512 22007KT P6SM VCSH SCT030 OVC100
     FM041400 23011G17KT P6SM VCTS OVC019CB
      TEMPO 0414/0418 3SM TSRA OVC019CB
     FM042000 27011KT P6SM VCSH BKN025 BKN040=



000
FTUS42 KMLB 041133
TAFSFB
TAF
KSFB 041133Z 0412/0512 27006KT P6SM -RA VCSH BKN009 OVC110
     FM041300 23008G16KT P6SM VCTS OVC019CB
      TEMPO 0414/0417 3SM TSRA OVC019CB
     FM041800 27008KT P6SM VCSH BKN025 BKN040=



000
FTUS42 KMLB 041133
TAFDAB
TAF
KDAB 041133Z 0412/0512 22011KT P6SM VCSH SCT009 SCT050 OVC090
      TEMPO 0412/0413 2SM TSRA SCT035CB
     FM041300 23010G16KT P6SM TS BKN035CB OVC080
      TEMPO 0413/0417 4SM TSRA OVC019CB
     FM041800 27008KT P6SM VCSH BKN025 BKN040=



000
FTUS42 KMLB 041133
TAFVRB
TAF
KVRB 041133Z 0412/0512 22007KT P6SM SCT030 OVC100
     FM041300 22011KT P6SM VCSH SCT009 BKN020
     FM041500 23008G16KT P6SM VCTS OVC019CB
      TEMPO 0415/0419 3SM TSRA OVC019CB
     FM042100 27011KT P6SM VCSH BKN025 BKN040=



000
FTUS42 KMLB 041133
TAFMLB
TAF
KMLB 041133Z 0412/0512 22007KT P6SM VCSH SCT030 OVC100
     FM041400 23011G17KT P6SM VCTS OVC019CB
      TEMPO 0414/0418 3SM TSRA OVC019CB
     FM042000 27011KT P6SM VCSH BKN025 BKN040=



000
FTUS42 KMLB 041133
TAFDAB
TAF
KDAB 041133Z 0412/0512 22011KT P6SM VCSH SCT009 SCT050 OVC090
      TEMPO 0412/0413 2SM TSRA SCT035CB
     FM041300 23010G16KT P6SM TS BKN035CB OVC080
      TEMPO 0413/0417 4SM TSRA OVC019CB
     FM041800 27008KT P6SM VCSH BKN025 BKN040=



000
FTUS42 KMLB 041133
TAFVRB
TAF
KVRB 041133Z 0412/0512 22007KT P6SM SCT030 OVC100
     FM041300 22011KT P6SM VCSH SCT009 BKN020
     FM041500 23008G16KT P6SM VCTS OVC019CB
      TEMPO 0415/0419 3SM TSRA OVC019CB
     FM042100 27011KT P6SM VCSH BKN025 BKN040=



000
FTUS42 KMLB 040959 AAB
TAFMCO
TAF AMD
KMCO 040959Z 0410/0506 21006KT P6SM -TSRA BKN040CB BKN070
      TEMPO 0410/0412 23012KT 4SM TSRA BKN030CB BKN060
     FM041200 22007KT P6SM VCTS BKN035CB BKN070
     FM041400 23008G16KT P6SM VCTS OVC020CB
      TEMPO 0414/0418 3SM TSRA OVC019CB
     FM042000 27008KT P6SM VCSH BKN025 BKN040=



000
FTUS42 KMLB 040758 AAA
TAFMCO
TAF AMD
KMCO 040758Z 0408/0506 21005KT P6SM FEW030
     FM041000 21006KT P6SM -SHRA BKN030
     FM041200 22007KT P6SM VCSH SCT015 BKN025
     FM041400 23008G16KT P6SM VCTS OVC020CB
      TEMPO 0414/0418 3SM TSRA OVC019CB
     FM042000 27008KT P6SM VCSH BKN025 BKN040=



000
FTUS42 KMLB 040541
TAFMCO
TAF
KMCO 040541Z 0406/0506 21003KT P6SM FEW080 FEW140 BKN250
     FM040700 21005KT P6SM SCT030
     FM041000 21006KT P6SM OVC019
     FM041200 22007KT P6SM VCSH SCT009 BKN020
     FM041400 23008G16KT P6SM VCTS OVC019CB
      TEMPO 0415/0419 3SM TSRA OVC019CB
     FM042000 27008KT P6SM VCSH BKN025 BKN040=



000
FTUS42 KMLB 040541
TAFDAB
TAF
KDAB 040541Z 0406/0506 20005KT P6SM FEW080 SCT120 BKN250
     FM040700 21005KT P6SM SCT030 SCT100
     FM041000 22006KT P6SM OVC019
     FM041200 22007KT P6SM VCSH SCT010 BKN020
     FM041300 23008G16KT P6SM VCTS OVC029CB
      TEMPO 0414/0417 3SM TSRA OVC019CB
     FM041800 27008KT P6SM VCSH BKN025 BKN040=



000
FTUS42 KMLB 040541
TAFMLB
TAF
KMLB 040541Z 0406/0506 21007KT P6SM FEW110
     FM040900 21007KT P6SM SCT030
     FM041100 21009KT P6SM OVC025
     FM041200 22010KT P6SM VCSH SCT009 BKN020
     FM041400 23011G17KT P6SM VCTS OVC019CB
      TEMPO 0414/0418 3SM TSRA OVC019CB
     FM042000 27011KT P6SM VCSH BKN025 BKN040=



000
FTUS42 KMLB 040541
TAFVRB
TAF
KVRB 040541Z 0406/0506 21006KT P6SM SCT250
     FM041000 21007KT P6SM SCT030
     FM041200 21010KT P6SM OVC025
     FM041300 22011KT P6SM VCSH SCT009 BKN020
     FM041500 23008G16KT P6SM VCTS OVC019CB
      TEMPO 0415/0419 3SM TSRA OVC019CB
     FM042100 27011KT P6SM VCSH BKN025 BKN040=



000
FTUS42 KMLB 040541
TAFSFB
TAF
KSFB 040541Z 0406/0506 21005KT P6SM FEW040 SCT100
     FM040700 21005KT P6SM SCT030
     FM040900 22006KT P6SM OVC019
     FM041100 22007KT P6SM VCSH SCT009 BKN020
     FM041300 23008G16KT P6SM VCTS OVC019CB
      TEMPO 0414/0417 3SM TSRA OVC019CB
     FM041800 27008KT P6SM VCSH BKN025 BKN040=



000
FTUS42 KMLB 040541
TAFMCO
TAF
KMCO 040541Z 0406/0506 21003KT P6SM FEW080 FEW140 BKN250
     FM040700 21005KT P6SM SCT030
     FM041000 21006KT P6SM OVC019
     FM041200 22007KT P6SM VCSH SCT009 BKN020
     FM041400 23008G16KT P6SM VCTS OVC019CB
      TEMPO 0415/0419 3SM TSRA OVC019CB
     FM042000 27008KT P6SM VCSH BKN025 BKN040=



000
FTUS42 KMLB 040541
TAFDAB
TAF
KDAB 040541Z 0406/0506 20005KT P6SM FEW080 SCT120 BKN250
     FM040700 21005KT P6SM SCT030 SCT100
     FM041000 22006KT P6SM OVC019
     FM041200 22007KT P6SM VCSH SCT010 BKN020
     FM041300 23008G16KT P6SM VCTS OVC029CB
      TEMPO 0414/0417 3SM TSRA OVC019CB
     FM041800 27008KT P6SM VCSH BKN025 BKN040=



000
FTUS42 KMLB 040541
TAFSFB
TAF
KSFB 040541Z 0406/0506 21005KT P6SM FEW040 SCT100
     FM040700 21005KT P6SM SCT030
     FM040900 22006KT P6SM OVC019
     FM041100 22007KT P6SM VCSH SCT009 BKN020
     FM041300 23008G16KT P6SM VCTS OVC019CB
      TEMPO 0414/0417 3SM TSRA OVC019CB
     FM041800 27008KT P6SM VCSH BKN025 BKN040=



000
FTUS42 KMLB 040541
TAFMLB
TAF
KMLB 040541Z 0406/0506 21007KT P6SM FEW110
     FM040900 21007KT P6SM SCT030
     FM041100 21009KT P6SM OVC025
     FM041200 22010KT P6SM VCSH SCT009 BKN020
     FM041400 23011G17KT P6SM VCTS OVC019CB
      TEMPO 0414/0418 3SM TSRA OVC019CB
     FM042000 27011KT P6SM VCSH BKN025 BKN040=



000
FTUS42 KMLB 040541
TAFVRB
TAF
KVRB 040541Z 0406/0506 21006KT P6SM SCT250
     FM041000 21007KT P6SM SCT030
     FM041200 21010KT P6SM OVC025
     FM041300 22011KT P6SM VCSH SCT009 BKN020
     FM041500 23008G16KT P6SM VCTS OVC019CB
      TEMPO 0415/0419 3SM TSRA OVC019CB
     FM042100 27011KT P6SM VCSH BKN025 BKN040=



000
FTUS42 KMLB 040259 AAA
TAFMCO
TAF AMD
KMCO 040259Z 0403/0424 27005KT P6SM SCT100 BKN300
     FM040900 23004KT P6SM SCT030 BKN050
     FM041400 24009KT P6SM VCTS SCT020CB BKN040
      TEMPO 0415/0419 3SM TSRA BKN025CB=



000
FTUS42 KMLB 032340
TAFVRB
TAF
KVRB 032340Z 0400/0424 VRB05KT P6SM SCT060 BKN080
      TEMPO 0400/0401 VRB10G20KT 3SM TSRA BKN020CB
     FM041000 23004KT P6SM SCT030 BKN060
     FM041500 24009KT P6SM VCTS SCT020CB BKN040
      TEMPO 0416/0420 3SM TSRA BKN025CB=



000
FTUS42 KMLB 032340
TAFDAB
TAF
KDAB 032340Z 0400/0424 28005KT P6SM FEW050 SCT080 OVC300
     FM040900 22004KT P6SM SCT030 BKN050
     FM041400 23009KT P6SM VCTS SCT020CB BKN040
      TEMPO 0414/0418 3SM TSRA BKN025CB=



000
FTUS42 KMLB 032340
TAFMLB
TAF
KMLB 032340Z 0400/0424 32005KT P6SM BKN090
     FM041000 23004KT P6SM SCT030 BKN060
     FM041500 24010KT P6SM VCTS SCT020CB BKN040
      TEMPO 0416/0420 3SM TSRA BKN025CB=



000
FTUS42 KMLB 032340
TAFSFB
TAF
KSFB 032340Z 0400/0424 28007KT P6SM OVC300
     FM040900 23005KT P6SM SCT030 BKN050
     FM041400 24009KT P6SM VCTS SCT020CB BKN040
      TEMPO 0415/0419 3SM TSRA BKN025CB=



000
FTUS42 KMLB 032340
TAFMCO
TAF
KMCO 032340Z 0400/0424 29004KT P6SM FEW050 FEW100 OVC300
     FM040900 23004KT P6SM SCT030 BKN050
     FM041400 24009KT P6SM VCTS SCT020CB BKN040
      TEMPO 0415/0419 3SM TSRA BKN025CB=



000
FTUS42 KMLB 032340
TAFDAB
TAF
KDAB 032340Z 0400/0424 28005KT P6SM FEW050 SCT080 OVC300
     FM040900 22004KT P6SM SCT030 BKN050
     FM041400 23009KT P6SM VCTS SCT020CB BKN040
      TEMPO 0414/0418 3SM TSRA BKN025CB=



000
FTUS42 KMLB 032340
TAFVRB
TAF
KVRB 032340Z 0400/0424 VRB05KT P6SM SCT060 BKN080
      TEMPO 0400/0401 VRB10G20KT 3SM TSRA BKN020CB
     FM041000 23004KT P6SM SCT030 BKN060
     FM041500 24009KT P6SM VCTS SCT020CB BKN040
      TEMPO 0416/0420 3SM TSRA BKN025CB=



000
FTUS42 KMLB 032340
TAFMLB
TAF
KMLB 032340Z 0400/0424 32005KT P6SM BKN090
     FM041000 23004KT P6SM SCT030 BKN060
     FM041500 24010KT P6SM VCTS SCT020CB BKN040
      TEMPO 0416/0420 3SM TSRA BKN025CB=



000
FTUS42 KMLB 032154 AAB
TAFVRB
TAF AMD
KVRB 032154Z 0322/0418 08007KT P6SM VCSH SCT050 BKN100
      TEMPO 0322/0324 27010G20KT 3SM SHRA BKN035
     FM040000 24005KT P6SM FEW050 BKN250
     FM041000 23004KT P6SM SCT020 BKN060
     FM041400 24008KT P6SM VCSH SCT020 BKN040=



000
FTUS42 KMLB 032154 AAB
TAFVRB
TAF AMD
KVRB 032154Z 0322/0418 08007KT P6SM VCSH SCT050 BKN100
      TEMPO 0322/0324 27010G20KT 3SM SHRA BKN035
     FM040000 24005KT P6SM FEW050 BKN250
     FM041000 23004KT P6SM SCT020 BKN060
     FM041400 24008KT P6SM VCSH SCT020 BKN040=



000
FTUS42 KMLB 032022 AAA
TAFVRB
TAF AMD
KVRB 032022Z 0320/0418 25011G18KT P6SM BKN050 BKN250
     FM040000 24005KT P6SM FEW050 BKN250
     FM041000 23004KT P6SM SCT020 BKN060
     FM041400 24008KT P6SM VCSH SCT020 BKN040=



000
FTUS42 KMLB 032020 AAB
TAFMLB
TAF AMD
KMLB 032020Z 0320/0418 27010G18KT P6SM BKN050 BKN250
     FM040000 23005KT P6SM FEW050 BKN250
     FM041000 23004KT P6SM SCT010 BKN050
     FM041400 24008KT P6SM VCSH SCT020 BKN040=



000
FTUS42 KMLB 032016 AAA
TAFSFB
TAF AMD
KSFB 032016Z 0320/0418 27011KT P6SM VCSH SCT040 SCT100 SCT250
     FM040000 26006KT P6SM SCT050 BKN250
     FM040900 23005KT P6SM SCT010 BKN050
     FM041400 25008KT P6SM VCSH SCT020 BKN040=



000
FTUS42 KMLB 032015 CCB
TAFMCO
TAF COR
KMCO 032015Z 0318/0418 26012KT P6SM VCSH SCT050 BKN120 BKN250
     FM040000 24006KT P6SM FEW050 BKN250
     FM040900 23004KT P6SM SCT010 BKN050
     FM041400 25008KT P6SM VCSH SCT020 BKN040=



000
FTUS42 KMLB 032015 CCB
TAFMCO
TAF COR
KMCO 032015Z 0318/0418 26012KT P6SM VCSH SCT050 BKN120 BKN250
     FM040000 24006KT P6SM FEW050 BKN250
     FM040900 23004KT P6SM SCT010 BKN050
     FM041400 25008KT P6SM VCSH SCT020 BKN040=



000
FTUS42 KMLB 032013 AAA
TAFDAB
TAF AMD
KDAB 032013Z 0320/0418 26011KT P6SM VCSH SCT050 BKN120 BKN250
     FM040000 24006KT P6SM FEW050 BKN250
     FM040900 22004KT P6SM SCT010 BKN030 BKN050
     FM041400 25008KT P6SM VCSH SCT020 BKN040=



000
FTUS42 KMLB 032013 CCA
TAFMCO
TAF COR
KMCO 032013Z 0318/0418 26012KT P6SM VCSH SCT035 SCT250
      TEMPO 0319/0322 3SM TSRA BKN020CB
     FM040000 24006KT P6SM SCT040 BKN100
     FM040900 23004KT P6SM SCT010 BKN030 OVC050
     FM041400 25008KT P6SM VCTS SCT020CB OVC040=



000
FTUS42 KMLB 032013 AAA
TAFDAB
TAF AMD
KDAB 032013Z 0320/0418 26011KT P6SM VCSH SCT050 BKN120 BKN250
     FM040000 24006KT P6SM FEW050 BKN250
     FM040900 22004KT P6SM SCT010 BKN030 BKN050
     FM041400 25008KT P6SM VCSH SCT020 BKN040=



000
FTUS42 KMLB 031735
TAFDAB
TAF
KDAB 031735Z 0318/0418 26011KT P6SM VCSH SCT035 SCT250
      TEMPO 0318/0322 3SM TSRA BKN020CB
     FM040000 24006KT P6SM SCT040 BKN100
     FM040900 22004KT P6SM SCT010 BKN030 OVC050
     FM041400 25008KT P6SM VCTS SCT020CB OVC040=



000
FTUS42 KMLB 031735
TAFMCO
TAF
KMCO 031735Z 0318/0418 24012KT P6SM VCSH SCT035 SCT250
      TEMPO 0319/0322 3SM TSRA BKN020CB
     FM040000 24006KT P6SM SCT040 BKN100
     FM040900 23004KT P6SM SCT010 BKN030 OVC050
     FM041400 25008KT P6SM VCTS SCT020CB OVC040=



000
FTUS42 KMLB 031735
TAFVRB
TAF
KVRB 031735Z 0318/0418 24012G18KT P6SM SCT040 SCT250
      TEMPO 0319/0323 3SM TSRA BKN020CB
     FM040000 24005KT P6SM SCT040 BKN100
     FM041000 23004KT P6SM SCT020 BKN040 OVC060
     FM041400 24008KT P6SM VCTS SCT020CB OVC040=



000
FTUS42 KMLB 031735
TAFMLB
TAF
KMLB 031735Z 0318/0418 23012G18KT P6SM SCT040 SCT250
      TEMPO 0319/0323 3SM TSRA BKN020CB
     FM040000 23005KT P6SM SCT040 BKN100
     FM041000 23004KT P6SM SCT010 BKN030 OVC050
     FM041400 24008KT P6SM VCTS SCT020CB OVC040=



000
FTUS42 KMLB 031735
TAFSFB
TAF
KSFB 031735Z 0318/0418 27013KT P6SM VCSH SCT040 SCT250
      TEMPO 0319/0322 3SM TSRA BKN020CB
     FM040000 26006KT P6SM SCT040 BKN100
     FM040900 23005KT P6SM SCT010 BKN030 OVC050
     FM041400 25008KT P6SM VCTS SCT020CB OVC040=



000
FTUS42 KMLB 031735
TAFSFB
TAF
KSFB 031735Z 0318/0418 27013KT P6SM VCSH SCT040 SCT250
      TEMPO 0319/0322 3SM TSRA BKN020CB
     FM040000 26006KT P6SM SCT040 BKN100
     FM040900 23005KT P6SM SCT010 BKN030 OVC050
     FM041400 25008KT P6SM VCTS SCT020CB OVC040=



000
FTUS42 KMLB 031735
TAFMCO
TAF
KMCO 031735Z 0318/0418 24012KT P6SM VCSH SCT035 SCT250
      TEMPO 0319/0322 3SM TSRA BKN020CB
     FM040000 24006KT P6SM SCT040 BKN100
     FM040900 23004KT P6SM SCT010 BKN030 OVC050
     FM041400 25008KT P6SM VCTS SCT020CB OVC040=



000
FTUS42 KMLB 031735
TAFMLB
TAF
KMLB 031735Z 0318/0418 23012G18KT P6SM SCT040 SCT250
      TEMPO 0319/0323 3SM TSRA BKN020CB
     FM040000 23005KT P6SM SCT040 BKN100
     FM041000 23004KT P6SM SCT010 BKN030 OVC050
     FM041400 24008KT P6SM VCTS SCT020CB OVC040=



000
FTUS42 KMLB 031735
TAFDAB
TAF
KDAB 031735Z 0318/0418 26011KT P6SM VCSH SCT035 SCT250
      TEMPO 0318/0322 3SM TSRA BKN020CB
     FM040000 24006KT P6SM SCT040 BKN100
     FM040900 22004KT P6SM SCT010 BKN030 OVC050
     FM041400 25008KT P6SM VCTS SCT020CB OVC040=



000
FTUS42 KMLB 031735
TAFVRB
TAF
KVRB 031735Z 0318/0418 24012G18KT P6SM SCT040 SCT250
      TEMPO 0319/0323 3SM TSRA BKN020CB
     FM040000 24005KT P6SM SCT040 BKN100
     FM041000 23004KT P6SM SCT020 BKN040 OVC060
     FM041400 24008KT P6SM VCTS SCT020CB OVC040=



000
FTUS42 KMLB 031531 AAA
TAFMCO
TAF AMD
KMCO 031531Z 0316/0412 24010KT P6SM SCT025
     FM031800 24009KT P6SM VCTS BKN035CB
      TEMPO 0318/0321 3SM TSRA BKN020CB
     FM040000 23007KT P6SM SCT050 BKN150=



000
FTUS42 KMLB 031529 AAB
TAFMLB
TAF AMD
KMLB 031529Z 0315/0412 22012KT P6SM SCT020 BKN040
      TEMPO 0315/0318 BKN020
     FM032100 20007KT P6SM VCTS BKN035CB
      TEMPO 0321/0324 3SM TSRA BKN020CB
     FM040200 22007KT P6SM SCT050 BKN150=



000
FTUS42 KMLB 031528 AAA
TAFDAB
TAF AMD
KDAB 031528Z 0315/0412 25012KT P6SM SCT025
     FM032000 24009KT P6SM VCTS BKN035CB
      TEMPO 0320/0323 3SM TSRA BKN020CB
     FM040200 23007KT P6SM SCT050 BKN150=



000
FTUS42 KMLB 031120
TAFMLB
TAF
KMLB 031120Z 0312/0412 17006KT P6SM SCT100 BKN250
     FM031400 22009KT P6SM SCT030
     FM032100 20007KT P6SM VCTS BKN035CB
      TEMPO 0321/0324 3SM TSRA BKN020CB
     FM040200 22007KT P6SM SCT050 BKN150=



000
FTUS42 KMLB 031120
TAFDAB
TAF
KDAB 031120Z 0312/0412 20005KT P6SM FEW030 SCT060 BKN250
     FM031500 23010KT P6SM SCT025
     FM032000 24009KT P6SM VCTS BKN035CB
      TEMPO 0320/0323 3SM TSRA BKN020CB
     FM040200 23007KT P6SM SCT050 BKN150=



000
FTUS42 KMLB 031120
TAFVRB
TAF
KVRB 031120Z 0312/0412 23004KT P6SM SCT100 BKN250
     FM031400 22009KT P6SM SCT030
     FM032100 20007KT P6SM VCTS BKN035CB
      TEMPO 0321/0324 3SM TSRA BKN020CB
     FM040200 22007KT P6SM SCT050 BKN150=



000
FTUS42 KMLB 031120
TAFMCO
TAF
KMCO 031120Z 0312/0412 18006KT P6SM FEW030 SCT090 BKN250
     FM031500 23010KT P6SM SCT025
     FM031800 24009KT P6SM VCTS BKN035CB
      TEMPO 0318/0321 3SM TSRA BKN020CB
     FM040000 23007KT P6SM SCT050 BKN150=



000
FTUS42 KMLB 031120
TAFSFB
TAF
KSFB 031120Z 0312/0412 21006KT P6SM SCT090 BKN250
     FM031500 23010KT P6SM SCT025
     FM031800 24009KT P6SM VCTS BKN035CB
      TEMPO 0319/0322 3SM TSRA BKN020CB
     FM040100 23007KT P6SM SCT050 BKN150=



000
FTUS42 KMLB 031028 AAB
TAFVRB
TAF AMD
KVRB 031028Z 0310/0406 20005KT P6SM FEW015 SCT025 BKN080
      TEMPO 0310/0312 SCT015 BKN025
     FM031400 22009KT P6SM SCT030
     FM032100 20007KT P6SM VCTS BKN035CB
      TEMPO 0321/0324 3SM TSRA BKN020CB
     FM040200 22007KT P6SM SCT050 BKN150=



000
FTUS42 KMLB 031026 AAB
TAFDAB
TAF AMD
KDAB 031026Z 0310/0406 20006KT P6SM FEW030 SCT060 BKN250
     FM031500 23010KT P6SM SCT025
     FM032000 24009KT P6SM VCTS BKN035CB
      TEMPO 0320/0323 3SM TSRA BKN020CB
     FM040200 23007KT P6SM SCT050 BKN150=



000
FTUS42 KMLB 031025 AAB
TAFMLB
TAF AMD
KMLB 031025Z 0310/0406 16005KT P6SM FEW025 SCT060 BKN100
      TEMPO 0310/0312 SCT025 BKN060
     FM031400 22009KT P6SM SCT030
     FM032100 20007KT P6SM VCTS BKN035CB
      TEMPO 0321/0324 3SM TSRA BKN020CB
     FM040200 22007KT P6SM SCT050 BKN150=



000
FTUS42 KMLB 031023 AAA
TAFDAB
TAF AMD
KDAB 031023Z 0310/0406 20006KT P6SM FEW030 SCT060 BKN250
     FM031500 23010KT P6SM SCT025
     FM032000 24009KT P6SM VCTS BKN035CB
      TEMPO 0320/0321 3SM TSRA BKN020CB
     FM040200 23007KT P6SM SCT050 BKN150=



000
FTUS42 KMLB 031013 AAA
TAFSFB
TAF AMD
KSFB 031013Z 0310/0406 19006KT P6SM FEW025 SCT090 BKN250
      TEMPO 0310/0312 SCT020 BKN090
     FM031500 23010KT P6SM SCT025
     FM031800 24009KT P6SM VCTS BKN035CB
      TEMPO 0319/0322 3SM TSRA BKN020CB
     FM040100 23007KT P6SM SCT050 BKN150=



000
FTUS42 KMLB 031011 AAB
TAFMCO
TAF AMD
KMCO 031011Z 0310/0406 17006KT P6SM FEW020 SCT090 BKN250
      TEMPO 0310/0312 SCT020 BKN090
     FM031500 23010KT P6SM SCT025
     FM031800 24009KT P6SM VCTS BKN035CB
      TEMPO 0318/0321 3SM TSRA BKN020CB
     FM040000 23007KT P6SM SCT050 BKN150=



000
FTUS42 KMLB 030849 AAA
TAFMCO
TAF AMD
KMCO 030849Z 0309/0406 17006KT P6SM FEW020 SCT090 BKN250
      TEMPO 0309/0312 6SM BR BKN020
     FM031500 23010KT P6SM SCT025
     FM031800 24009KT P6SM VCTS BKN035CB
     FM040000 25007KT P6SM SCT050 BKN150=



000
FTUS42 KMLB 030819 AAA
TAFVRB
TAF AMD
KVRB 030819Z 0308/0406 16009KT P6SM VCSH FEW025 BKN060 OVC100
      TEMPO 0308/0310 4SM SHRA BR BKN030
     FM031000 16005KT P6SM FEW025 BKN120 BKN250
      TEMPO 0310/0312 BKN025
     FM031400 22009KT P6SM SCT030
     FM032100 20007KT P6SM VCTS BKN035CB=



000
FTUS42 KMLB 030817 AAB
TAFMLB
TAF AMD
KMLB 030817Z 0308/0406 16009KT P6SM VCSH FEW025 BKN050 OVC070
      TEMPO 0308/0310 5SM -RA BR BKN035
     FM031000 16005KT P6SM FEW025 BKN120 BKN250
      TEMPO 0310/0312 BKN025
     FM031400 22009KT P6SM SCT030
     FM032100 20007KT P6SM VCTS BKN035CB=



000
FTUS42 KMLB 030714 AAA
TAFMLB
TAF AMD
KMLB 030714Z 0307/0406 16009KT 4SM SHRA BR FEW025 BKN050 OVC090
     FM030900 16005KT P6SM FEW025 BKN120 BKN250
      TEMPO 0309/0312 BKN025
     FM031400 22009KT P6SM SCT030
     FM032100 20007KT P6SM VCTS BKN035CB=



000
FTUS42 KMLB 030532
TAFDAB
TAF
KDAB 030532Z 0306/0406 20006KT P6SM FEW030 BKN100 OVC250
     FM030900 19004KT P6SM SCT025 BKN120
      TEMPO 0309/0312 BKN025
     FM031500 23010KT P6SM SCT025
     FM032000 24009KT P6SM VCTS BKN035CB=



000
FTUS42 KMLB 030532
TAFSFB
TAF
KSFB 030532Z 0306/0406 15006KT P6SM FEW015 SCT050 BKN090
     FM030900 17004KT P6SM FEW020 BKN120 BKN250
      TEMPO 0309/0312 5SM BR BKN020
     FM031500 23010KT P6SM SCT025
     FM031800 24009KT P6SM VCTS BKN035CB=



000
FTUS42 KMLB 030532
TAFVRB
TAF
KVRB 030532Z 0306/0406 16005KT P6SM VCTS FEW020CB SCT070 BKN250
      TEMPO 0306/0308 VRB09G18KT 4SM TSRA BKN020CB OVC050
     FM030800 16005KT P6SM FEW025 SCT120 BKN250
     FM031400 21010KT P6SM SCT030
     FM032100 15008KT P6SM VCTS BKN035CB=



000
FTUS42 KMLB 030532
TAFMCO
TAF
KMCO 030532Z 0306/0406 15006KT P6SM FEW015 SCT050 BKN090
     FM030900 17004KT P6SM FEW020 BKN120 BKN250
      TEMPO 0309/0312 5SM BR BKN020
     FM031500 23010KT P6SM SCT025
     FM031800 24009KT P6SM VCTS BKN035CB=



000
FTUS42 KMLB 030532
TAFMLB
TAF
KMLB 030532Z 0306/0406 15005KT 4SM TSRA BR SCT020CB BKN050 OVC100
      TEMPO 0306/0307 2SM +TSRA BR BKN020CB
     FM030700 16005KT P6SM VCTS FEW025CB SCT120 BKN250
     FM030800 16005KT P6SM FEW025 SCT120 BKN250
      TEMPO 0309/0312 BKN025
     FM031400 22009KT P6SM SCT030
     FM032100 20007KT P6SM VCTS BKN035CB=



000
FTUS42 KMLB 030504 AAD
TAFMCO
TAF AMD
KMCO 030504Z 0305/0324 15005KT P6SM FEW020 SCT050 BKN090
     FM031500 23010KT P6SM SCT025
     FM031800 24009KT P6SM VCTS BKN035CB=



000
FTUS42 KMLB 030504 AAD
TAFMCO
TAF AMD
KMCO 030504Z 0305/0324 15005KT P6SM FEW020 SCT050 BKN090
     FM031500 23010KT P6SM SCT025
     FM031800 24009KT P6SM VCTS BKN035CB=



000
FTUS42 KMLB 030500 AAA
TAFVRB
TAF AMD
KVRB 030500Z 0305/0324 16005KT P6SM VCTS FEW020CB SCT070 BKN250
      TEMPO 0305/0307 VRB09G18KT 4SM TSRA BKN020CB OVC050
     FM030700 16005KT P6SM FEW025 SCT120 BKN250
     FM031400 21010KT P6SM SCT030
     FM032100 15008KT P6SM VCTS BKN035CB=



000
FTUS42 KMLB 030500 AAA
TAFVRB
TAF AMD
KVRB 030500Z 0305/0324 16005KT P6SM VCTS FEW020CB SCT070 BKN250
      TEMPO 0305/0307 VRB09G18KT 4SM TSRA BKN020CB OVC050
     FM030700 16005KT P6SM FEW025 SCT120 BKN250
     FM031400 21010KT P6SM SCT030
     FM032100 15008KT P6SM VCTS BKN035CB=



000
FTUS42 KMLB 030404 AAC
TAFMLB
TAF AMD
KMLB 030404Z 0304/0324 15005KT P6SM VCTS SCT020CB BKN060 BKN100
      TEMPO 0304/0306 VRB10G22KT 4SM TSRA BKN015CB
     FM030700 16005KT P6SM FEW025 SCT120 BKN250
     FM031400 22009KT P6SM SCT030
     FM032100 20007KT P6SM VCTS BKN035CB=



000
FTUS42 KMLB 030355 AAB
TAFDAB
TAF AMD
KDAB 030355Z 0304/0324 18006KT P6SM VCSH SCT020 BKN050 BKN120
      TEMPO 0304/0306 BKN025
     FM030600 19004KT P6SM FEW025 SCT120 BKN250
     FM031500 23010KT P6SM SCT025
     FM032000 24009KT P6SM VCTS BKN035CB=



000
FTUS42 KMLB 030355 AAB
TAFDAB
TAF AMD
KDAB 030355Z 0304/0324 18006KT P6SM VCSH SCT020 BKN050 BKN120
      TEMPO 0304/0306 BKN025
     FM030600 19004KT P6SM FEW025 SCT120 BKN250
     FM031500 23010KT P6SM SCT025
     FM032000 24009KT P6SM VCTS BKN035CB=



000
FTUS42 KMLB 030352 AAB
TAFSFB
TAF AMD
KSFB 030352Z 0304/0324 17008KT P6SM VCSH FEW010 SCT050 BKN100
      TEMPO 0304/0306 SCT005 BKN035
     FM030600 18005KT P6SM SCT080 BKN250
     FM031500 24010KT P6SM SCT025
     FM031800 24009KT P6SM VCTS BKN035CB=



000
FTUS42 KMLB 030346 AAB
TAFMLB
TAF AMD
KMLB 030346Z 0304/0324 15005KT P6SM VCSH FEW020 SCT050 BKN250
      TEMPO 0304/0306 VRB08G16KT 5SM SHRA BKN020
     FM031400 22009KT P6SM SCT030
     FM032100 20007KT P6SM VCTS BKN035CB=



000
FTUS42 KMLB 030334 AAD
TAFMLB
TAF AMD
KMLB 030334Z 0304/0324 15005KT P6SM FEW020 SCT050 BKN250
      TEMPO 0304/0306 VRB08G16KT 5SM SHRA BKN020
     FM031400 22009KT P6SM SCT030
     FM032100 20007KT P6SM VCTS BKN035CB=



000
FTUS42 KMLB 030303 AAC
TAFMCO
TAF AMD
KMCO 030303Z 0303/0324 21010G18KT 2SM +TSRA SCT010 OVC025CB
      TEMPO 0303/0304 6SM -TSRA BKN020CB OVC050
     FM030400 18004KT P6SM FEW060 BKN120 BKN250
     FM031500 23010KT P6SM SCT025
     FM031800 24009KT P6SM VCTS BKN035CB=



000
FTUS42 KMLB 030225 AAA
TAFDAB
TAF AMD
KDAB 030225Z 0302/0324 21005KT P6SM VCSH SCT020 BKN060
      TEMPO 0302/0304 3SM SHRA BKN020
     FM030500 19004KT P6SM BKN250
     FM031500 23010KT P6SM SCT025
     FM032000 24009KT P6SM VCTS BKN035CB=



000
FTUS42 KMLB 030222 AAB
TAFMCO
TAF AMD
KMCO 030222Z 0302/0324 12008KT 6SM -TSRA FEW040CB SCT060 BKN250
      TEMPO 0302/0304 1SM +TSRA BKN020CB
     FM030400 18004KT P6SM FEW060 BKN120 BKN250
     FM031500 23010KT P6SM SCT025
     FM031800 24009KT P6SM VCTS BKN035CB=



000
FTUS42 KMLB 030222 AAB
TAFMCO
TAF AMD
KMCO 030222Z 0302/0324 12008KT 6SM -TSRA FEW040CB SCT060 BKN250
      TEMPO 0302/0304 1SM +TSRA BKN020CB
     FM030400 18004KT P6SM FEW060 BKN120 BKN250
     FM031500 23010KT P6SM SCT025
     FM031800 24009KT P6SM VCTS BKN035CB=



000
FTUS42 KMLB 030007 AAA
TAFSFB
TAF AMD
KSFB 030007Z 0300/0324 14010KT P6SM BKN250
     FM030100 15008KT P6SM VCTS SCT040CB BKN100
      TEMPO 0301/0303 VRB15G30KT 1SM +TSRA BKN020CB
     FM030300 18005KT P6SM SCT080 BKN250
     FM031500 24010KT P6SM SCT025
     FM031800 24009KT P6SM VCTS BKN035CB=



000
FTUS42 KMLB 030007 AAA
TAFSFB
TAF AMD
KSFB 030007Z 0300/0324 14010KT P6SM BKN250
     FM030100 15008KT P6SM VCTS SCT040CB BKN100
      TEMPO 0301/0303 VRB15G30KT 1SM +TSRA BKN020CB
     FM030300 18005KT P6SM SCT080 BKN250
     FM031500 24010KT P6SM SCT025
     FM031800 24009KT P6SM VCTS BKN035CB=



000
FTUS42 KMLB 030005 AAA
TAFMCO
TAF AMD
KMCO 030005Z 0300/0324 12010KT P6SM VCTS FEW040CB SCT060 BKN250
      TEMPO 0301/0303 VRB15G30KT 1SM +TSRA BKN020CB
     FM030300 18004KT P6SM BKN250
     FM031500 23010KT P6SM SCT025
     FM031800 24009KT P6SM VCTS BKN035CB=



000
FTUS42 KMLB 030005 AAA
TAFMCO
TAF AMD
KMCO 030005Z 0300/0324 12010KT P6SM VCTS FEW040CB SCT060 BKN250
      TEMPO 0301/0303 VRB15G30KT 1SM +TSRA BKN020CB
     FM030300 18004KT P6SM BKN250
     FM031500 23010KT P6SM SCT025
     FM031800 24009KT P6SM VCTS BKN035CB=



000
FTUS42 KMLB 022334
TAFSFB
TAF
KSFB 022334Z 0300/0324 15010KT P6SM BKN250
     FM030300 18005KT P6SM SCT080 BKN250
     FM031500 24010KT P6SM SCT025
     FM031800 24009KT P6SM VCTS BKN035CB=



000
FTUS42 KMLB 022334
TAFDAB
TAF
KDAB 022334Z 0300/0324 12008KT P6SM FEW060 SCT090 SCT250
     FM030200 19004KT P6SM BKN250
     FM031500 23010KT P6SM SCT025
     FM032000 24009KT P6SM VCTS BKN035CB=



000
FTUS42 KMLB 022334
TAFMLB
TAF
KMLB 022334Z 0300/0324 14012KT P6SM FEW050
     FM030300 18005KT P6SM BKN250
     FM031400 22009KT P6SM SCT030
     FM032100 20007KT P6SM VCTS BKN035CB=



000
FTUS42 KMLB 022334
TAFVRB
TAF
KVRB 022334Z 0300/0324 13012KT P6SM FEW016 BKN090
     FM030300 17005KT P6SM BKN250
     FM031400 21010KT P6SM SCT030
     FM032100 15008KT P6SM VCTS BKN035CB=



000
FTUS42 KMLB 022334
TAFMCO
TAF
KMCO 022334Z 0300/0324 12010KT P6SM VCTS FEW040CB SCT060 BKN250
     FM030300 18004KT P6SM BKN250
     FM031500 23010KT P6SM SCT025
     FM031800 24009KT P6SM VCTS BKN035CB=



000
FTUS42 KMLB 022239 AAB
TAFSFB
TAF AMD
KSFB 022239Z 0223/0318 14014KT P6SM BKN080
     FM030200 18005KT P6SM SCT080 BKN250
     FM031400 23010KT P6SM SCT030 BKN060=



000
FTUS42 KMLB 022237 AAB
TAFDAB
TAF AMD
KDAB 022237Z 0223/0318 11010G15KT P6SM SCT050 SCT080
     FM030200 19004KT P6SM BKN250
     FM031400 23008KT P6SM SCT030 BKN060=



000
FTUS42 KMLB 022236 AAD
TAFMLB
TAF AMD
KMLB 022236Z 0223/0318 13015G20KT P6SM SCT040 BKN080
     FM030200 16005KT P6SM BKN250
     FM031400 22008KT P6SM SCT030 BKN060=



000
FTUS42 KMLB 022236 AAC
TAFVRB
TAF AMD
KVRB 022236Z 0223/0318 12015G20KT P6SM FEW050 BKN250
     FM030200 16005KT P6SM BKN250
     FM031400 20008KT P6SM SCT030 BKN060=



000
FTUS42 KMLB 022236 AAC
TAFVRB
TAF AMD
KVRB 022236Z 0223/0318 12015G20KT P6SM FEW050 BKN250
     FM030200 16005KT P6SM BKN250
     FM031400 20008KT P6SM SCT030 BKN060=



000
FTUS42 KMLB 022236 AAD
TAFMLB
TAF AMD
KMLB 022236Z 0223/0318 13015G20KT P6SM SCT040 BKN080
     FM030200 16005KT P6SM BKN250
     FM031400 22008KT P6SM SCT030 BKN060=



000
FTUS42 KMLB 022232 AAB
TAFMCO
TAF AMD
KMCO 022232Z 0223/0318 12015KT P6SM SCT050 SCT100
     FM030000 15009KT P6SM VCTS SCT040CB BKN100
     FM030200 15004KT P6SM BKN250
     FM031400 21010KT P6SM SCT030 BKN060=



000
FTUS42 KMLB 022058 AAA
TAFSFB
TAF AMD
KSFB 022058Z 0221/0318 VRB04KT P6SM FEW050 SCT070
     FM022200 14011KT P6SM VCTS SCT040CB BKN100
      TEMPO 0222/0224 3SM TSRA BKN020CB OVC040
     FM030200 17005KT P6SM BKN250
     FM031400 23010KT P6SM SCT030 BKN060=



000
FTUS42 KMLB 022057 AAA
TAFMCO
TAF AMD
KMCO 022057Z 0221/0318 18010KT P6SM FEW050 SCT100
     FM022200 13010KT P6SM VCTS SCT040CB BKN100
      TEMPO 0222/0224 3SM TSRA BKN020CB OVC040
     FM030200 15004KT P6SM BKN250
     FM031400 21010KT P6SM SCT030 BKN060=



000
FTUS42 KMLB 022055 AAA
TAFDAB
TAF AMD
KDAB 022055Z 0221/0318 11012G18KT P6SM SCT050 SCT080
     FM030000 11009KT P6SM VCTS SCT040CB BKN100
     FM030200 19004KT P6SM BKN250
     FM031400 23008KT P6SM SCT030 BKN060=



000
FTUS42 KMLB 022053 AAC
TAFMLB
TAF AMD
KMLB 022053Z 0221/0318 13017G23KT P6SM SCT040 BKN080
     FM030000 13011KT P6SM VCTS SCT040CB BKN100
     FM030200 16005KT P6SM BKN250
     FM031400 22008KT P6SM SCT030 BKN060=



000
FTUS42 KMLB 022053 AAB
TAFVRB
TAF AMD
KVRB 022053Z 0221/0318 12017G23KT P6SM FEW030 BKN250
     FM030000 13012KT P6SM VCTS SCT040CB BKN100
     FM030200 16005KT P6SM BKN250
     FM031400 20008KT P6SM SCT030 BKN060=



000
FTUS42 KMLB 022053 AAC
TAFMLB
TAF AMD
KMLB 022053Z 0221/0318 13017G23KT P6SM SCT040 BKN080
     FM030000 13011KT P6SM VCTS SCT040CB BKN100
     FM030200 16005KT P6SM BKN250
     FM031400 22008KT P6SM SCT030 BKN060=



000
FTUS42 KMLB 021902 AAA
TAFVRB
TAF AMD
KVRB 021902Z 0219/0318 12014G21KT P6SM VCTS SCT020CB BKN060
     FM022100 13012KT P6SM VCTS SCT040CB BKN100
      TEMPO 0222/0301 3SM TSRA BKN020CB OVC040
     FM030200 16005KT P6SM BKN250
     FM031400 20008KT P6SM SCT030 BKN060=



000
FTUS42 KMLB 021902 AAA
TAFVRB
TAF AMD
KVRB 021902Z 0219/0318 12014G21KT P6SM VCTS SCT020CB BKN060
     FM022100 13012KT P6SM VCTS SCT040CB BKN100
      TEMPO 0222/0301 3SM TSRA BKN020CB OVC040
     FM030200 16005KT P6SM BKN250
     FM031400 20008KT P6SM SCT030 BKN060=



000
FTUS42 KMLB 021735
TAFMLB
TAF
KMLB 021735Z 0218/0318 13014G20KT P6SM VCSH SCT040 BKN060
     FM022100 13011KT P6SM VCTS SCT040CB BKN100
      TEMPO 0222/0301 3SM TSRA BKN020CB OVC040
     FM030200 16005KT P6SM BKN250
     FM031400 22008KT P6SM SCT030 BKN060=



000
FTUS42 KMLB 021735
TAFMLB
TAF
KMLB 021735Z 0218/0318 13014G20KT P6SM VCSH SCT040 BKN060
     FM022100 13011KT P6SM VCTS SCT040CB BKN100
      TEMPO 0222/0301 3SM TSRA BKN020CB OVC040
     FM030200 16005KT P6SM BKN250
     FM031400 22008KT P6SM SCT030 BKN060=



000
FTUS42 KMLB 021735
TAFMCO
TAF
KMCO 021735Z 0218/0318 15010KT P6SM FEW040 SCT250
     FM022000 13010KT P6SM VCTS SCT040CB BKN100
      TEMPO 0221/0224 3SM TSRA BKN020CB OVC040
     FM030200 15004KT P6SM BKN250
     FM031400 21010KT P6SM SCT030 BKN060=



000
FTUS42 KMLB 021735
TAFDAB
TAF
KDAB 021735Z 0218/0318 08008KT P6SM VCSH SCT040 BKN060
     FM022100 11009KT P6SM VCTS SCT040CB BKN100
      TEMPO 0222/0301 3SM TSRA BKN020CB OVC040
     FM030200 19004KT P6SM BKN250
     FM031400 23008KT P6SM SCT030 BKN060=



000
FTUS42 KMLB 021735
TAFMCO
TAF
KMCO 021735Z 0218/0318 15010KT P6SM FEW040 SCT250
     FM022000 13010KT P6SM VCTS SCT040CB BKN100
      TEMPO 0221/0224 3SM TSRA BKN020CB OVC040
     FM030200 15004KT P6SM BKN250
     FM031400 21010KT P6SM SCT030 BKN060=



000
FTUS42 KMLB 021735
TAFSFB
TAF
KSFB 021735Z 0218/0318 19008KT P6SM FEW040 SCT250
     FM022000 14011KT P6SM VCTS SCT040CB BKN100
      TEMPO 0221/0224 3SM TSRA BKN020CB OVC040
     FM030200 17005KT P6SM BKN250
     FM031400 23010KT P6SM SCT030 BKN060=



000
FTUS42 KMLB 021735
TAFDAB
TAF
KDAB 021735Z 0218/0318 08008KT P6SM VCSH SCT040 BKN060
     FM022100 11009KT P6SM VCTS SCT040CB BKN100
      TEMPO 0222/0301 3SM TSRA BKN020CB OVC040
     FM030200 19004KT P6SM BKN250
     FM031400 23008KT P6SM SCT030 BKN060=



000
FTUS42 KMLB 021735
TAFVRB
TAF
KVRB 021735Z 0218/0318 12014G21KT P6SM VCSH SCT040 BKN060
     FM022100 13012KT P6SM VCTS SCT040CB BKN100
      TEMPO 0222/0301 3SM TSRA BKN020CB OVC040
     FM030200 16005KT P6SM BKN250
     FM031400 20008KT P6SM SCT030 BKN060=



000
FTUS42 KMLB 021735
TAFSFB
TAF
KSFB 021735Z 0218/0318 19008KT P6SM FEW040 SCT250
     FM022000 14011KT P6SM VCTS SCT040CB BKN100
      TEMPO 0221/0224 3SM TSRA BKN020CB OVC040
     FM030200 17005KT P6SM BKN250
     FM031400 23010KT P6SM SCT030 BKN060=



000
FTUS42 KMLB 021735
TAFVRB
TAF
KVRB 021735Z 0218/0318 12014G21KT P6SM VCSH SCT040 BKN060
     FM022100 13012KT P6SM VCTS SCT040CB BKN100
      TEMPO 0222/0301 3SM TSRA BKN020CB OVC040
     FM030200 16005KT P6SM BKN250
     FM031400 20008KT P6SM SCT030 BKN060=



000
FTUS42 KMLB 021618 AAB
TAFMLB
TAF AMD
KMLB 021618Z 0216/0312 12012G20KT P6SM VCSH SCT035 BKN050
      TEMPO 0216/0218 2SM SHRA BKN020 OVC030
     FM030200 14007KT P6SM SCT250=



000
FTUS42 KMLB 021522 AAA
TAFMCO
TAF AMD
KMCO 021522Z 0215/0312 18010KT P6SM SCT030 SCT250
     FM022000 13010KT P6SM VCTS SCT040CB BKN090
      TEMPO 0221/0224 3SM TSRA BKN020CB OVC040
     FM030200 16005KT P6SM SCT040 SCT060=



000
FTUS42 KMLB 021522 AAA
TAFMCO
TAF AMD
KMCO 021522Z 0215/0312 18010KT P6SM SCT030 SCT250
     FM022000 13010KT P6SM VCTS SCT040CB BKN090
      TEMPO 0221/0224 3SM TSRA BKN020CB OVC040
     FM030200 16005KT P6SM SCT040 SCT060=



000
FTUS42 KMLB 021120
TAFSFB
TAF
KSFB 021120Z 0212/0312 14003KT P6SM SCT250
     FM021400 16008KT P6SM SCT040 SCT250
     FM022000 15011KT P6SM VCTS SCT040CB BKN090
     FM030200 17005KT P6SM SCT040 SCT060=



000
FTUS42 KMLB 021120
TAFDAB
TAF
KDAB 021120Z 0212/0312 00000KT P6SM SCT250
     FM021400 17007KT P6SM FEW040 SCT250
     FM021800 12011KT P6SM SCT035 SCT250
     FM030200 20004KT P6SM SCT035 SCT250=



000
FTUS42 KMLB 021120
TAFVRB
TAF
KVRB 021120Z 0212/0312 16005KT P6SM FEW020 SCT250
     FM021400 14011KT P6SM SCT030 SCT250
     FM021800 12013G20KT P6SM FEW030 SCT250
     FM030200 14007KT P6SM SCT250=



000
FTUS42 KMLB 021120
TAFMCO
TAF
KMCO 021120Z 0212/0312 12004KT P6SM FEW250
     FM021400 15008KT P6SM FEW040 SCT250
     FM022000 13010KT P6SM VCTS SCT040CB BKN090
     FM030200 16005KT P6SM SCT040 SCT060=



000
FTUS42 KMLB 021120
TAFMLB
TAF
KMLB 021120Z 0212/0312 17003KT P6SM FEW015 SCT250
     FM021400 13011KT P6SM SCT030 SCT250
     FM021800 12012G18KT P6SM FEW030 SCT250
     FM030200 14007KT P6SM SCT250=



000
FTUS42 KMLB 020939 AAA
TAFSFB
TAF AMD
KSFB 020939Z 0210/0306 16003KT P6SM FEW015 SCT025 BKN300
      TEMPO 0210/0213 BKN025
     FM021400 17008KT P6SM FEW035 SCT250
     FM022000 15009KT P6SM VCTS SCT040CB BKN090
     FM022300 13010KT P6SM SCT040 SCT060 BKN250
     FM030300 17004KT P6SM SCT035 SCT120 BKN250=



000
FTUS42 KMLB 020938 AAB
TAFMCO
TAF AMD
KMCO 020938Z 0210/0306 16003KT P6SM FEW015 SCT025 BKN300
      TEMPO 0210/0213 BKN025
     FM021400 17008KT P6SM FEW035 SCT250
     FM022000 15009KT P6SM VCTS SCT040CB BKN090
     FM022300 13010KT P6SM SCT040 SCT060 BKN250
     FM030300 17004KT P6SM SCT035 SCT120 BKN250=



000
FTUS42 KMLB 020933 AAA
TAFDAB
TAF AMD
KDAB 020933Z 0210/0306 17003KT P6SM FEW030 BKN250
     FM021400 18008KT P6SM FEW040 SCT250
     FM021800 15009KT P6SM SCT035 SCT250
     FM022300 12009KT P6SM VCTS SCT035CB BKN250
     FM030300 19005KT P6SM SCT050 BKN250=



000
FTUS42 KMLB 020933 AAA
TAFDAB
TAF AMD
KDAB 020933Z 0210/0306 17003KT P6SM FEW030 BKN250
     FM021400 18008KT P6SM FEW040 SCT250
     FM021800 15009KT P6SM SCT035 SCT250
     FM022300 12009KT P6SM VCTS SCT035CB BKN250
     FM030300 19005KT P6SM SCT050 BKN250=



000
FTUS42 KMLB 020929 AAB
TAFMLB
TAF AMD
KMLB 020929Z 0209/0306 16006KT P6SM SCT020
      TEMPO 0209/0212 BKN020
     FM021300 14011KT P6SM FEW025 SCT250
     FM021500 13012KT P6SM VCSH SCT025 SCT050
     FM021800 13014G18KT P6SM SCT035 SCT250
     FM022300 14009KT P6SM SCT040 BKN250=



000
FTUS42 KMLB 020926 AAA
TAFVRB
TAF AMD
KVRB 020926Z 0209/0306 15011KT P6SM SCT025
     FM021300 14011KT P6SM FEW025 SCT250
     FM021500 13012KT P6SM VCSH SCT025 SCT050
     FM021800 13014G18KT P6SM SCT035 SCT120 BKN250
     FM022300 14009KT P6SM SCT040 BKN250=



000
FTUS42 KMLB 020910 AAA
TAFMCO
TAF AMD
KMCO 020910Z 0209/0306 16003KT P6SM FEW015 BKN025 BKN300
     FM021400 17008KT P6SM FEW035 SCT250
     FM022000 15009KT P6SM VCTS SCT040CB BKN090
     FM022300 13010KT P6SM SCT040 SCT060=



000
FTUS42 KMLB 020542
TAFVRB
TAF
KVRB 020542Z 0206/0306 12009KT P6SM FEW020 SCT030
      TEMPO 0206/0209 BKN030
     FM021300 14011KT P6SM FEW025 SCT250
     FM021500 13012KT P6SM VCSH SCT025 SCT050
     FM021800 13014G19KT P6SM FEW025 SCT035 SCT250=



000
FTUS42 KMLB 020542
TAFDAB
TAF
KDAB 020542Z 0206/0306 13004KT P6SM SCT250
     FM021400 18008KT P6SM FEW040 SCT250
     FM021730 15009KT P6SM SCT035 SCT250
     FM021930 12009KT P6SM SCT035 SCT250=



000
FTUS42 KMLB 020542
TAFSFB
TAF
KSFB 020542Z 0206/0306 15004KT P6SM SCT250
     FM021400 18008KT P6SM SCT040 SCT250
     FM021900 15009KT P6SM VCTS SCT040CB BKN090
     FM022200 14011KT P6SM SCT040 SCT060=



000
FTUS42 KMLB 020542
TAFMCO
TAF
KMCO 020542Z 0206/0306 12008KT P6SM FEW250
     FM021400 17008KT P6SM FEW040 SCT250
     FM022000 15009KT P6SM VCTS SCT040CB BKN090
     FM022300 13010KT P6SM SCT040 SCT060=



000
FTUS42 KMLB 020542
TAFMLB
TAF
KMLB 020542Z 0206/0306 13008KT P6SM FEW015 SCT025
     FM021300 13011KT P6SM SCT025 SCT250
     FM021500 13012KT P6SM VCSH SCT025 SCT050
     FM021800 13014G19KT P6SM FEW025 SCT035 SCT250=



000
FTUS42 KMLB 020253 AAA
TAFMCO
TAF AMD
KMCO 020253Z 0203/0224 12008KT P6SM FEW250
     FM021400 17008KT P6SM FEW040 SCT250
     FM022200 13010KT P6SM SCT040 SCT060=



000
FTUS42 KMLB 020119 AAA
TAFVRB
TAF AMD
KVRB 020119Z 0201/0224 12009KT P6SM FEW025
     FM021400 14011KT P6SM FEW025 SCT250
     FM021800 13014G19KT P6SM FEW025 SCT035 SCT250=



000
FTUS42 KMLB 020119 AAA
TAFVRB
TAF AMD
KVRB 020119Z 0201/0224 12009KT P6SM FEW025
     FM021400 14011KT P6SM FEW025 SCT250
     FM021800 13014G19KT P6SM FEW025 SCT035 SCT250=



000
FTUS42 KMLB 012320
TAFMCO
TAF
KMCO 012320Z 0200/0224 11011KT P6SM FEW045 SCT250
     FM020300 14004KT P6SM SCT250
     FM021400 17008KT P6SM FEW040 SCT250
     FM022200 13010KT P6SM SCT040 SCT060=



000
FTUS42 KMLB 012320
TAFSFB
TAF
KSFB 012320Z 0200/0224 12011KT P6SM FEW045 SCT250
     FM020300 15004KT P6SM SCT250
     FM021400 18008KT P6SM SCT040 SCT250
     FM022100 14011KT P6SM SCT040 SCT060=



000
FTUS42 KMLB 012320
TAFDAB
TAF
KDAB 012320Z 0200/0224 11008KT P6SM FEW035 SCT250
     FM020200 13004KT P6SM SKC
     FM021400 18008KT P6SM FEW040 SCT250
     FM021730 15009KT P6SM SCT035 SCT250
     FM021930 12009KT P6SM SCT035 SCT250=



000
FTUS42 KMLB 012320
TAFMLB
TAF
KMLB 012320Z 0200/0224 11011KT P6SM FEW030 SCT250
     FM020300 13008KT P6SM SKC
     FM021400 13011KT P6SM SCT025 SCT250
     FM021900 13014G19KT P6SM FEW025 SCT035 SCT250=



000
FTUS42 KMLB 012320
TAFVRB
TAF
KVRB 012320Z 0200/0224 12012G18KT P6SM FEW030
     FM020300 12009KT P6SM SKC
     FM021400 14011KT P6SM FEW025 SCT250
     FM021800 13014G19KT P6SM FEW025 SCT035 SCT250=



    US Dept of Commerce
    National Oceanic and Atmospheric Administration
    National Weather Service
    1325 East West Highway
    Silver Spring, MD 20910
    Page Author: NWS Internet Services Team
Disclaimer
Information Quality
Credits
Glossary
Privacy Policy
Freedom of Information Act (FOIA)
About Us
Career Opportunities